Aviation Digital Data Service (ADDS)

Output produced by METARs form (0219 UTC 23 September 2014)
found at http://aviationweather.gov/adds/metars/
 
KDAG 230150Z AUTO 05005KT 10SM CLR 31/01 A2991 RMK AO2 SLP104 T03110006 TSNO
KDAG 222320Z 2300/2324 04006KT P6SM SKC 
     FM230200 25009KT P6SM SKC 
     FM231700 30007KT P6SM SKC 
     FM232000 05007KT P6SM SKC
       
KEDW 230158Z 24012KT 80SM CLR 31/05 A2993 RMK AO2A SLP116 T03050045
TAF KEDW 2302/2408 24012KT 9999 SKC QNH2992INS 
     BECMG 2303/2304 VRB06KT 9999 SKC QNH2995INS 
     BECMG 2400/2401 24012KT 9999 SKC QNH2996INS 
     BECMG 2403/2404 VRB06KT 9999 SKC QNH2991INS TX35/2323Z TN14/2313Z
       
KVCV 230215Z AUTO 19013KT 10SM CLR 27/00 A2999 RMK AO2
KONT 230153Z 25009KT 10SM CLR 28/14 A2991 RMK AO2 SLP116 T02780139
KONT 222327Z 2300/2406 25011KT P6SM SKC 
     FM230400 VRB04KT P6SM SKC 
     FM232000 25011KT P6SM SKC 
     FM240400 VRB04KT P6SM SKC
       
KNID 230156Z 18007KT 10SM CLR 31/M02 A2992 RMK AO2 SLP114 T03111022 $
TAF KNID 2223/2323 VRB05KT 9999 SKC QNH2990INS 
     TEMPO 2223/2302 21012G20KT 
     BECMG 2302/2304 21006KT 9999 SKC QNH2992INS WND VRB05KT AFT 2312 
     BECMG 2321/2323 21007G14KT 9999 SKC QNH2990INS T16/2312Z T36/2323Z
       
KSNA 230153Z 21005KT 10SM CLR 24/17 A2990 RMK AO2 SLP124 T02440167
KSNA 222327Z 2300/2324 VRB04KT P6SM FEW010 
     FM231000 VRB03KT P6SM BKN009 
     FM231600 VRB06KT P6SM FEW010 
     FM231900 23008KT P6SM SKC
       
KSAN 230151Z 31007KT 10SM FEW015 22/17 A2992 RMK AO2 SLP130 T02220172
KSAN 222327Z 2300/2406 29010KT P6SM SCT018 
     FM230200 VRB04KT P6SM SCT012 
     FM230730 VRB03KT P6SM OVC010 
     FM231600 VRB04KT P6SM FEW010 
     FM231900 29010KT P6SM SKC 
     FM240200 VRB04KT P6SM SCT010
       
KNXP 230156Z AUTO 24007KT 10SM CLR 32/04 A2999 RMK AO2 SLP119 T03220039
TAF KNXP 2221/2321 15008KT 9999 SKC QNH2995INS 
     BECMG 2303/2305 26006KT 9999 SKC QNH2998INS 
     BECMG 2315/2317 VRB05KT 9999 SKC QNH3000INS T35/2223Z T21/2312Z
       
KPSP 230153Z 10006KT 10SM CLR 36/07 A2984 RMK AO2 SLP101 T03560072
KPSP 222327Z 2300/2324 VRB06KT P6SM SKC 
     FM232100 12009KT P6SM SKC
       
KLAX 230153Z 27009KT 10SM FEW014 21/17 A2992 RMK AO2 SLP130 T02060172
KLAX 222339Z 2300/2406 26012KT P6SM FEW012 
     FM230300 27008KT P6SM SKC 
     FM230700 VRB03KT P6SM SKC 
     FM230900 VRB03KT 6SM BR OVC008 
     FM231600 VRB03KT P6SM BKN010 
     FM231900 27009KT P6SM FEW015 
     FM232200 25012KT P6SM SKC 
     FM240300 25009KT P6SM SKC
       
KCNO 230153Z 25007KT 10SM CLR 26/17 A2991 RMK AO2 SLP125 T02560167
KSMO 230151Z 24007KT 10SM CLR 21/17 A2992 RMK AO2 SLP129 T02060167 $
KLGB 230153Z 30008KT 10SM CLR 23/17 A2990 RMK AO2 SLP124 T02280172 $
KLGB 222339Z 2300/2324 30008KT P6SM SKC 
     FM230500 VRB03KT P6SM SKC 
     FM230900 VRB03KT P6SM OVC008 
     FM231800 17004KT P6SM FEW010 
     FM232100 21007KT P6SM SKC 
     FM232300 29008KT P6SM SKC
       
KVNY 230151Z 13004KT 10SM CLR 27/12 A2990 RMK AO2 SLP118 T02670117
KVNY 222339Z 2300/2324 14008KT P6SM SKC 
     FM230300 VRB03KT P6SM SKC 
     FM232100 15008KT P6SM SKC
       
KBUR 230153Z 18005KT 10SM CLR 25/14 A2990 RMK AO2 SLP115 T02500144
KBUR 222339Z 2300/2324 19007KT P6SM SKC 
     FM230200 15005KT P6SM SKC 
     FM230500 VRB03KT P6SM SKC 
     FM231300 VRB03KT 6SM BR SCT010 
     FM231700 14003KT P6SM SKC 
     FM232000 17006KT P6SM SKC
       
KBFL 230154Z AUTO 28006KT 10SM CLR 30/12 A2989 RMK AO2 SLP114 T03000122 TSNO
KBFL 222320Z 2300/2324 30009KT P6SM SKC 
     FM230300 VRB04KT P6SM SKC
       
KPMD 230153Z AUTO 24014KT 10SM CLR 28/06 A2997 RMK AO2 SLP124 T02830061 TSNO
KPMD 222339Z 2300/2324 24012KT P6SM SKC 
     FM230600 20007KT P6SM SKC 
     FM231500 VRB03KT P6SM SKC 
     FM232100 25005KT P6SM SKC 
     FM232300 23012KT P6SM SKC
       
KOXR 230151Z 27008KT 8SM CLR 19/17 A2991 RMK AO2 SLP129 T01940172
KOXR 222339Z 2300/2324 28009KT P6SM SKC 
     FM230400 VRB03KT P6SM SKC 
     FM231000 VRB03KT P6SM OVC007 
     FM231200 VRB03KT 4SM BR OVC004 
     FM231600 VRB03KT 5SM BR OVC006 
     FM231800 25006KT 6SM HZ BKN010 
     FM232000 27009KT P6SM SKC
       
KWJF 230156Z 23011KT 10SM CLR 27/06 A2996 RMK AO2 SLP132 T02720061 $
KWJF 222339Z 2300/2324 23015KT P6SM SKC 
     FM230300 25010KT P6SM SKC 
     FM230700 VRB03KT P6SM SKC 
     FM232100 20007KT P6SM SKC 
     FM232300 24015KT P6SM SKC
       
KCMA 230155Z 24005KT 10SM CLR 22/16 A2992 RMK AO2 SLP138 T02220156
KFAT 230153Z 31007KT 10SM FEW070 FEW150 31/13 A2989 RMK AO2 SLP117 FU FEW070 T03110133
KFAT 222320Z 2300/2324 30005KT P6SM SKC
       
KEED 230156Z AUTO 26007KT 10SM CLR 36/01 A2985 RMK AO2 SLP075 T03560006
KEED 222320Z 2300/2324 19007KT P6SM SKC 
     FM230300 24008KT P6SM SKC 
     FM231000 VRB03KT P6SM SKC 
     FM231900 20008KT P6SM SKC
       
KLSV 230158Z AUTO 11005KT 10SM CLR 32/06 A2990 RMK AO2 SLP103 T03240063 $
TAF KLSV 2301/2407 16009KT 9999 SKC QNH2989INS 
     BECMG 2305/2306 06009KT 9999 SKC QNH2995INS 
     BECMG 2317/2318 18009KT 9999 SKC QNH2993INS TX35/2322Z TN21/2312Z
       
KLAS 230156Z 14006KT 10SM CLR 33/04 A2989 RMK AO2 SLP096 T03280044
KLAS 222320Z 2300/2324 12010KT P6SM SKC 
     FM230400 20009KT P6SM SKC 
     FM231500 08007KT P6SM SKC
       
KHII 230155Z AUTO 15005KT 10SM CLR 35/03 A2984 RMK AO2
KIFP 230155Z AUTO 16003KT 10SM CLR 35/03 A2984 RMK AO2